sensor_id;sensor_type;location;lat;lon;timestamp;temperature;humidity
53073;DHT22;38955;48.916;2.336;2023-12-20T00:01:39;10.70;99.90
53073;DHT22;38955;48.916;2.336;2023-12-20T00:03:43;10.70;99.90
53073;DHT22;38955;48.916;2.336;2023-12-20T00:05:46;10.70;99.90
53073;DHT22;38955;48.916;2.336;2023-12-20T00:07:49;10.70;99.90
53073;DHT22;38955;48.916;2.336;2023-12-20T00:09:51;10.80;99.90
53073;DHT22;38955;48.916;2.336;2023-12-20T00:11:53;10.70;99.90
53073;DHT22;38955;48.916;2.336;2023-12-20T00:13:55;10.70;99.90
53073;DHT22;38955;48.916;2.336;2023-12-20T00:15:57;10.50;99.90
53073;DHT22;38955;48.916;2.336;2023-12-20T00:18:00;10.60;99.90
53073;DHT22;38955;48.916;2.336;2023-12-20T00:20:05;10.60;99.90
53073;DHT22;38955;48.916;2.336;2023-12-20T00:22:08;10.50;99.90
53073;DHT22;38955;48.916;2.336;2023-12-20T00:24:10;10.50;99.90
53073;DHT22;38955;48.916;2.336;2023-12-20T00:26:12;10.50;99.90
53073;DHT22;38955;48.916;2.336;2023-12-20T00:28:14;10.40;99.90
53073;DHT22;38955;48.916;2.336;2023-12-20T00:30:16;10.40;99.90
53073;DHT22;38955;48.916;2.336;2023-12-20T00:32:19;10.30;99.90
53073;DHT22;38955;48.916;2.336;2023-12-20T00:34:22;10.20;99.90
53073;DHT22;38955;48.916;2.336;2023-12-20T00:36:25;10.20;99.90
53073;DHT22;38955;48.916;2.336;2023-12-20T00:38:28;10.20;99.90
53073;DHT22;38955;48.916;2.336;2023-12-20T00:40:30;10.00;99.90
53073;DHT22;38955;48.916;2.336;2023-12-20T00:42:33;9.90;99.90
53073;DHT22;38955;48.916;2.336;2023-12-20T00:44:35;9.80;99.90
53073;DHT22;38955;48.916;2.336;2023-12-20T00:46:37;9.70;99.90
53073;DHT22;38955;48.916;2.336;2023-12-20T00:48:39;9.70;99.90
53073;DHT22;38955;48.916;2.336;2023-12-20T00:50:43;9.60;99.90
53073;DHT22;38955;48.916;2.336;2023-12-20T00:52:47;9.60;99.90
53073;DHT22;38955;48.916;2.336;2023-12-20T00:54:49;9.50;99.90
53073;DHT22;38955;48.916;2.336;2023-12-20T00:56:51;9.60;99.90
53073;DHT22;38955;48.916;2.336;2023-12-20T00:58:53;9.60;99.90
53073;DHT22;38955;48.916;2.336;2023-12-20T01:00:55;9.50;99.90
53073;DHT22;38955;48.916;2.336;2023-12-20T01:02:57;9.40;99.90
53073;DHT22;38955;48.916;2.336;2023-12-20T01:04:59;9.40;99.90
53073;DHT22;38955;48.916;2.336;2023-12-20T01:07:03;9.30;99.90
53073;DHT22;38955;48.916;2.336;2023-12-20T01:09:07;9.30;99.90
53073;DHT22;38955;48.916;2.336;2023-12-20T01:11:09;9.20;99.90
53073;DHT22;38955;48.916;2.336;2023-12-20T01:13:11;9.30;99.90
53073;DHT22;38955;48.916;2.336;2023-12-20T01:15:13;9.20;99.90
53073;DHT22;38955;48.916;2.336;2023-12-20T01:17:15;9.20;99.90
53073;DHT22;38955;48.916;2.336;2023-12-20T01:19:17;9.20;99.90
53073;DHT22;38955;48.916;2.336;2023-12-20T01:21:19;9.20;99.90
53073;DHT22;38955;48.916;2.336;2023-12-20T01:23:22;9.10;99.90
53073;DHT22;38955;48.916;2.336;2023-12-20T01:25:25;9.00;99.90
53073;DHT22;38955;48.916;2.336;2023-12-20T01:27:27;9.00;99.90
53073;DHT22;38955;48.916;2.336;2023-12-20T01:29:29;8.90;99.90
53073;DHT22;38955;48.916;2.336;2023-12-20T01:31:31;8.90;99.90
53073;DHT22;38955;48.916;2.336;2023-12-20T01:33:33;8.90;99.90
53073;DHT22;38955;48.916;2.336;2023-12-20T01:35:35;9.00;99.90
53073;DHT22;38955;48.916;2.336;2023-12-20T01:37:37;8.90;99.90
53073;DHT22;38955;48.916;2.336;2023-12-20T01:39:40;8.90;99.90
53073;DHT22;38955;48.916;2.336;2023-12-20T01:41:43;8.80;99.90
53073;DHT22;38955;48.916;2.336;2023-12-20T01:43:45;8.90;99.90
53073;DHT22;38955;48.916;2.336;2023-12-20T01:45:53;8.90;99.90
53073;DHT22;38955;48.916;2.336;2023-12-20T01:47:58;8.80;99.90
53073;DHT22;38955;48.916;2.336;2023-12-20T01:50:01;8.80;99.90
53073;DHT22;38955;48.916;2.336;2023-12-20T01:52:05;8.80;99.90
53073;DHT22;38955;48.916;2.336;2023-12-20T01:54:11;8.70;99.90
53073;DHT22;38955;48.916;2.336;2023-12-20T01:56:13;8.80;99.90
53073;DHT22;38955;48.916;2.336;2023-12-20T01:58:17;8.80;99.90
53073;DHT22;38955;48.916;2.336;2023-12-20T02:00:21;8.90;99.90
53073;DHT22;38955;48.916;2.336;2023-12-20T02:02:27;9.00;99.90
53073;DHT22;38955;48.916;2.336;2023-12-20T02:04:30;9.00;99.90
53073;DHT22;38955;48.916;2.336;2023-12-20T02:06:33;9.10;99.90
53073;DHT22;38955;48.916;2.336;2023-12-20T02:08:36;9.10;99.90
53073;DHT22;38955;48.916;2.336;2023-12-20T02:10:38;9.20;99.90
53073;DHT22;38955;48.916;2.336;2023-12-20T02:12:42;9.20;99.90
53073;DHT22;38955;48.916;2.336;2023-12-20T02:14:45;9.30;99.90
53073;DHT22;38955;48.916;2.336;2023-12-20T02:16:48;9.40;99.90
53073;DHT22;38955;48.916;2.336;2023-12-20T02:18:50;9.30;99.90
53073;DHT22;38955;48.916;2.336;2023-12-20T02:20:52;9.40;99.90
53073;DHT22;38955;48.916;2.336;2023-12-20T02:22:56;9.40;99.90
53073;DHT22;38955;48.916;2.336;2023-12-20T02:24:58;9.40;99.90
53073;DHT22;38955;48.916;2.336;2023-12-20T02:27:02;9.40;99.90
53073;DHT22;38955;48.916;2.336;2023-12-20T02:29:06;9.40;99.90
53073;DHT22;38955;48.916;2.336;2023-12-20T02:31:08;9.40;99.90
53073;DHT22;38955;48.916;2.336;2023-12-20T02:33:12;9.40;99.90
53073;DHT22;38955;48.916;2.336;2023-12-20T02:35:16;9.50;99.90
53073;DHT22;38955;48.916;2.336;2023-12-20T02:37:18;9.40;99.90
53073;DHT22;38955;48.916;2.336;2023-12-20T02:39:23;9.40;99.90
53073;DHT22;38955;48.916;2.336;2023-12-20T02:41:25;9.40;99.90
53073;DHT22;38955;48.916;2.336;2023-12-20T02:43:28;9.40;99.90
53073;DHT22;38955;48.916;2.336;2023-12-20T02:45:30;9.40;99.90
53073;DHT22;38955;48.916;2.336;2023-12-20T02:47:32;9.40;99.90
53073;DHT22;38955;48.916;2.336;2023-12-20T02:49:34;9.40;99.90
53073;DHT22;38955;48.916;2.336;2023-12-20T02:51:36;9.30;99.90
53073;DHT22;38955;48.916;2.336;2023-12-20T02:53:40;9.30;99.90
53073;DHT22;38955;48.916;2.336;2023-12-20T02:55:44;9.20;99.90
53073;DHT22;38955;48.916;2.336;2023-12-20T02:57:46;9.20;99.90
53073;DHT22;38955;48.916;2.336;2023-12-20T02:59:48;9.10;99.90
53073;DHT22;38955;48.916;2.336;2023-12-20T03:01:50;9.20;99.90
53073;DHT22;38955;48.916;2.336;2023-12-20T03:03:52;9.10;99.90
53073;DHT22;38955;48.916;2.336;2023-12-20T03:05:55;9.20;99.90
53073;DHT22;38955;48.916;2.336;2023-12-20T03:07:57;9.10;99.90
53073;DHT22;38955;48.916;2.336;2023-12-20T03:10:00;9.10;99.90
53073;DHT22;38955;48.916;2.336;2023-12-20T03:12:21;9.10;99.90
53073;DHT22;38955;48.916;2.336;2023-12-20T03:14:24;9.10;99.90
53073;DHT22;38955;48.916;2.336;2023-12-20T03:16:26;9.10;99.90
53073;DHT22;38955;48.916;2.336;2023-12-20T03:18:28;9.00;99.90
53073;DHT22;38955;48.916;2.336;2023-12-20T03:20:30;9.00;99.90
53073;DHT22;38955;48.916;2.336;2023-12-20T03:22:36;9.10;99.90
53073;DHT22;38955;48.916;2.336;2023-12-20T03:24:38;9.10;99.90
53073;DHT22;38955;48.916;2.336;2023-12-20T03:26:40;8.90;99.90
53073;DHT22;38955;48.916;2.336;2023-12-20T03:28:43;9.00;99.90
53073;DHT22;38955;48.916;2.336;2023-12-20T03:30:45;9.00;99.90
53073;DHT22;38955;48.916;2.336;2023-12-20T03:32:48;8.90;99.90
53073;DHT22;38955;48.916;2.336;2023-12-20T03:34:50;8.90;99.90
53073;DHT22;38955;48.916;2.336;2023-12-20T03:36:52;8.90;99.90
53073;DHT22;38955;48.916;2.336;2023-12-20T03:38:54;8.90;99.90
53073;DHT22;38955;48.916;2.336;2023-12-20T03:40:56;8.80;99.90
53073;DHT22;38955;48.916;2.336;2023-12-20T03:42:58;8.80;99.90
53073;DHT22;38955;48.916;2.336;2023-12-20T03:45:02;8.90;99.90
53073;DHT22;38955;48.916;2.336;2023-12-20T03:47:04;8.80;99.90
53073;DHT22;38955;48.916;2.336;2023-12-20T03:49:06;8.90;99.90
53073;DHT22;38955;48.916;2.336;2023-12-20T03:51:08;8.90;99.90
53073;DHT22;38955;48.916;2.336;2023-12-20T03:53:11;8.70;99.90
53073;DHT22;38955;48.916;2.336;2023-12-20T03:55:13;8.70;99.90
53073;DHT22;38955;48.916;2.336;2023-12-20T03:57:15;8.70;99.90
53073;DHT22;38955;48.916;2.336;2023-12-20T03:59:18;8.70;99.90
53073;DHT22;38955;48.916;2.336;2023-12-20T04:01:22;8.80;99.90
53073;DHT22;38955;48.916;2.336;2023-12-20T04:03:24;8.80;99.90
53073;DHT22;38955;48.916;2.336;2023-12-20T04:05:26;8.80;99.90
53073;DHT22;38955;48.916;2.336;2023-12-20T04:07:28;8.80;99.90
53073;DHT22;38955;48.916;2.336;2023-12-20T04:09:32;8.90;99.90
53073;DHT22;38955;48.916;2.336;2023-12-20T04:11:34;8.90;99.90
53073;DHT22;38955;48.916;2.336;2023-12-20T04:13:37;9.00;99.90
53073;DHT22;38955;48.916;2.336;2023-12-20T04:15:39;8.90;99.90
53073;DHT22;38955;48.916;2.336;2023-12-20T04:17:43;8.90;99.90
53073;DHT22;38955;48.916;2.336;2023-12-20T04:19:45;8.90;99.90
53073;DHT22;38955;48.916;2.336;2023-12-20T04:21:48;8.80;99.90
53073;DHT22;38955;48.916;2.336;2023-12-20T04:23:50;8.70;99.90
53073;DHT22;38955;48.916;2.336;2023-12-20T04:25:52;8.70;99.90
53073;DHT22;38955;48.916;2.336;2023-12-20T04:27:55;8.70;99.90
53073;DHT22;38955;48.916;2.336;2023-12-20T04:29:57;8.70;99.90
53073;DHT22;38955;48.916;2.336;2023-12-20T04:31:59;8.80;99.90
53073;DHT22;38955;48.916;2.336;2023-12-20T04:34:02;8.70;99.90
53073;DHT22;38955;48.916;2.336;2023-12-20T04:36:05;8.80;99.90
53073;DHT22;38955;48.916;2.336;2023-12-20T04:38:07;8.80;99.90
53073;DHT22;38955;48.916;2.336;2023-12-20T04:40:09;8.80;99.90
53073;DHT22;38955;48.916;2.336;2023-12-20T04:42:12;8.70;99.90
53073;DHT22;38955;48.916;2.336;2023-12-20T04:44:14;8.70;99.90
53073;DHT22;38955;48.916;2.336;2023-12-20T04:46:16;8.70;99.90
53073;DHT22;38955;48.916;2.336;2023-12-20T04:48:18;8.70;99.90
53073;DHT22;38955;48.916;2.336;2023-12-20T04:50:21;8.60;99.90
53073;DHT22;38955;48.916;2.336;2023-12-20T04:52:24;8.70;99.90
53073;DHT22;38955;48.916;2.336;2023-12-20T04:54:26;8.70;99.90
53073;DHT22;38955;48.916;2.336;2023-12-20T04:56:28;8.70;99.90
53073;DHT22;38955;48.916;2.336;2023-12-20T04:58:30;8.80;99.90
53073;DHT22;38955;48.916;2.336;2023-12-20T05:00:32;8.70;99.90
53073;DHT22;38955;48.916;2.336;2023-12-20T05:02:35;8.60;99.90
53073;DHT22;38955;48.916;2.336;2023-12-20T05:04:38;8.60;99.90
53073;DHT22;38955;48.916;2.336;2023-12-20T05:06:41;8.50;99.90
53073;DHT22;38955;48.916;2.336;2023-12-20T05:08:43;8.60;99.90
53073;DHT22;38955;48.916;2.336;2023-12-20T05:10:46;8.50;99.90
53073;DHT22;38955;48.916;2.336;2023-12-20T05:12:48;8.60;99.90
53073;DHT22;38955;48.916;2.336;2023-12-20T05:14:51;8.50;99.90
53073;DHT22;38955;48.916;2.336;2023-12-20T05:16:53;8.40;99.90
53073;DHT22;38955;48.916;2.336;2023-12-20T05:18:55;8.40;99.90
53073;DHT22;38955;48.916;2.336;2023-12-20T05:20:58;8.50;99.90
53073;DHT22;38955;48.916;2.336;2023-12-20T05:23:02;8.50;99.90
53073;DHT22;38955;48.916;2.336;2023-12-20T05:25:04;8.50;99.90
53073;DHT22;38955;48.916;2.336;2023-12-20T05:27:07;8.50;99.90
53073;DHT22;38955;48.916;2.336;2023-12-20T05:29:09;8.40;99.90
53073;DHT22;38955;48.916;2.336;2023-12-20T05:31:11;8.50;99.90
53073;DHT22;38955;48.916;2.336;2023-12-20T05:33:13;8.60;99.90
53073;DHT22;38955;48.916;2.336;2023-12-20T05:35:16;8.60;99.90
53073;DHT22;38955;48.916;2.336;2023-12-20T05:37:19;8.60;99.90
53073;DHT22;38955;48.916;2.336;2023-12-20T05:39:23;8.60;99.90
53073;DHT22;38955;48.916;2.336;2023-12-20T05:41:25;8.40;99.90
53073;DHT22;38955;48.916;2.336;2023-12-20T05:43:27;8.40;99.90
53073;DHT22;38955;48.916;2.336;2023-12-20T05:45:29;8.50;99.90
53073;DHT22;38955;48.916;2.336;2023-12-20T05:47:31;8.50;99.90
53073;DHT22;38955;48.916;2.336;2023-12-20T05:49:34;8.40;99.90
53073;DHT22;38955;48.916;2.336;2023-12-20T05:51:37;8.40;99.90
53073;DHT22;38955;48.916;2.336;2023-12-20T05:53:39;8.30;99.90
53073;DHT22;38955;48.916;2.336;2023-12-20T05:55:43;8.40;99.90
53073;DHT22;38955;48.916;2.336;2023-12-20T05:57:45;8.40;99.90
53073;DHT22;38955;48.916;2.336;2023-12-20T05:59:47;8.40;99.90
53073;DHT22;38955;48.916;2.336;2023-12-20T06:01:49;8.40;99.90
53073;DHT22;38955;48.916;2.336;2023-12-20T06:03:51;8.40;99.90
53073;DHT22;38955;48.916;2.336;2023-12-20T06:05:53;8.40;99.90
53073;DHT22;38955;48.916;2.336;2023-12-20T06:08:11;8.50;99.90
53073;DHT22;38955;48.916;2.336;2023-12-20T06:10:14;8.40;99.90
53073;DHT22;38955;48.916;2.336;2023-12-20T06:12:17;8.40;99.90
53073;DHT22;38955;48.916;2.336;2023-12-20T06:14:19;8.40;99.90
53073;DHT22;38955;48.916;2.336;2023-12-20T06:16:21;8.30;99.90
53073;DHT22;38955;48.916;2.336;2023-12-20T06:18:23;8.30;99.90
53073;DHT22;38955;48.916;2.336;2023-12-20T06:20:27;8.40;99.90
53073;DHT22;38955;48.916;2.336;2023-12-20T06:22:28;8.40;99.90
53073;DHT22;38955;48.916;2.336;2023-12-20T06:24:31;8.50;99.90
53073;DHT22;38955;48.916;2.336;2023-12-20T06:26:35;8.50;99.90
53073;DHT22;38955;48.916;2.336;2023-12-20T06:28:40;8.40;99.90
53073;DHT22;38955;48.916;2.336;2023-12-20T06:30:43;8.40;99.90
53073;DHT22;38955;48.916;2.336;2023-12-20T06:32:45;8.40;99.90
53073;DHT22;38955;48.916;2.336;2023-12-20T06:34:49;8.30;99.90
53073;DHT22;38955;48.916;2.336;2023-12-20T06:36:51;8.40;99.90
53073;DHT22;38955;48.916;2.336;2023-12-20T06:38:53;8.40;99.90
53073;DHT22;38955;48.916;2.336;2023-12-20T06:40:55;8.40;99.90
53073;DHT22;38955;48.916;2.336;2023-12-20T06:42:59;8.40;99.90
53073;DHT22;38955;48.916;2.336;2023-12-20T06:45:14;8.20;99.90
53073;DHT22;38955;48.916;2.336;2023-12-20T06:47:16;8.40;99.90
53073;DHT22;38955;48.916;2.336;2023-12-20T06:49:18;8.40;99.90
53073;DHT22;38955;48.916;2.336;2023-12-20T06:51:21;8.40;99.90
53073;DHT22;38955;48.916;2.336;2023-12-20T06:53:27;8.30;99.90
53073;DHT22;38955;48.916;2.336;2023-12-20T06:55:29;8.30;99.90
53073;DHT22;38955;48.916;2.336;2023-12-20T06:57:32;8.20;99.90
53073;DHT22;38955;48.916;2.336;2023-12-20T06:59:38;8.20;99.90
53073;DHT22;38955;48.916;2.336;2023-12-20T07:01:42;8.30;99.90
53073;DHT22;38955;48.916;2.336;2023-12-20T07:03:44;8.20;99.90
53073;DHT22;38955;48.916;2.336;2023-12-20T07:05:46;8.20;99.90
53073;DHT22;38955;48.916;2.336;2023-12-20T07:07:48;8.30;99.90
53073;DHT22;38955;48.916;2.336;2023-12-20T07:09:51;8.40;99.90
53073;DHT22;38955;48.916;2.336;2023-12-20T07:11:53;8.30;99.90
53073;DHT22;38955;48.916;2.336;2023-12-20T07:13:55;8.20;99.90
53073;DHT22;38955;48.916;2.336;2023-12-20T07:15:57;8.20;99.90
53073;DHT22;38955;48.916;2.336;2023-12-20T07:18:01;8.20;99.90
53073;DHT22;38955;48.916;2.336;2023-12-20T07:20:04;8.20;99.90
53073;DHT22;38955;48.916;2.336;2023-12-20T07:22:08;8.30;99.90
53073;DHT22;38955;48.916;2.336;2023-12-20T07:24:11;8.20;99.90
53073;DHT22;38955;48.916;2.336;2023-12-20T07:26:13;8.30;99.90
53073;DHT22;38955;48.916;2.336;2023-12-20T07:28:16;8.30;99.90
53073;DHT22;38955;48.916;2.336;2023-12-20T07:30:18;8.10;99.90
53073;DHT22;38955;48.916;2.336;2023-12-20T07:32:20;8.20;99.90
53073;DHT22;38955;48.916;2.336;2023-12-20T07:34:23;8.30;99.90
53073;DHT22;38955;48.916;2.336;2023-12-20T07:36:26;8.20;99.90
53073;DHT22;38955;48.916;2.336;2023-12-20T07:38:28;8.30;99.90
53073;DHT22;38955;48.916;2.336;2023-12-20T07:40:30;8.10;99.90
53073;DHT22;38955;48.916;2.336;2023-12-20T07:42:32;8.20;99.90
53073;DHT22;38955;48.916;2.336;2023-12-20T07:44:34;8.40;99.90
53073;DHT22;38955;48.916;2.336;2023-12-20T07:46:37;8.40;99.90
53073;DHT22;38955;48.916;2.336;2023-12-20T07:48:39;8.40;99.90
53073;DHT22;38955;48.916;2.336;2023-12-20T07:50:47;8.30;99.90
53073;DHT22;38955;48.916;2.336;2023-12-20T07:52:49;8.20;99.90
53073;DHT22;38955;48.916;2.336;2023-12-20T07:54:51;8.20;99.90
53073;DHT22;38955;48.916;2.336;2023-12-20T07:56:53;8.20;99.90
53073;DHT22;38955;48.916;2.336;2023-12-20T07:58:55;8.20;99.90
53073;DHT22;38955;48.916;2.336;2023-12-20T08:01:00;8.30;99.90
53073;DHT22;38955;48.916;2.336;2023-12-20T08:03:02;8.20;99.90
53073;DHT22;38955;48.916;2.336;2023-12-20T08:05:06;8.20;99.90
53073;DHT22;38955;48.916;2.336;2023-12-20T08:07:09;8.20;99.90
53073;DHT22;38955;48.916;2.336;2023-12-20T08:09:11;8.50;99.90
53073;DHT22;38955;48.916;2.336;2023-12-20T08:11:13;8.70;99.90
53073;DHT22;38955;48.916;2.336;2023-12-20T08:13:15;9.10;99.90
53073;DHT22;38955;48.916;2.336;2023-12-20T08:15:18;9.00;99.90
53073;DHT22;38955;48.916;2.336;2023-12-20T08:17:20;9.10;99.90
53073;DHT22;38955;48.916;2.336;2023-12-20T08:19:22;9.10;99.90
53073;DHT22;38955;48.916;2.336;2023-12-20T08:21:24;9.20;99.90
53073;DHT22;38955;48.916;2.336;2023-12-20T08:23:28;9.50;99.90
53073;DHT22;38955;48.916;2.336;2023-12-20T08:25:34;9.50;99.90
53073;DHT22;38955;48.916;2.336;2023-12-20T08:27:39;9.80;99.90
53073;DHT22;38955;48.916;2.336;2023-12-20T08:29:43;9.70;99.90
53073;DHT22;38955;48.916;2.336;2023-12-20T08:31:47;9.70;99.90
53073;DHT22;38955;48.916;2.336;2023-12-20T08:33:53;9.80;99.90
53073;DHT22;38955;48.916;2.336;2023-12-20T08:35:55;10.00;99.90
53073;DHT22;38955;48.916;2.336;2023-12-20T08:37:57;10.00;99.90
53073;DHT22;38955;48.916;2.336;2023-12-20T08:40:01;9.80;99.90
53073;DHT22;38955;48.916;2.336;2023-12-20T08:42:04;9.60;99.90
53073;DHT22;38955;48.916;2.336;2023-12-20T08:44:06;9.70;99.90
53073;DHT22;38955;48.916;2.336;2023-12-20T08:46:08;10.20;99.90
53073;DHT22;38955;48.916;2.336;2023-12-20T08:48:14;10.20;99.90
53073;DHT22;38955;48.916;2.336;2023-12-20T08:50:16;9.70;99.90
53073;DHT22;38955;48.916;2.336;2023-12-20T08:52:19;9.50;99.90
53073;DHT22;38955;48.916;2.336;2023-12-20T08:54:21;9.40;99.90
53073;DHT22;38955;48.916;2.336;2023-12-20T08:56:24;9.30;99.90
53073;DHT22;38955;48.916;2.336;2023-12-20T08:58:26;9.30;99.90
53073;DHT22;38955;48.916;2.336;2023-12-20T09:00:28;9.20;99.90
53073;DHT22;38955;48.916;2.336;2023-12-20T09:02:31;9.20;99.90
53073;DHT22;38955;48.916;2.336;2023-12-20T09:04:33;9.20;99.90
53073;DHT22;38955;48.916;2.336;2023-12-20T09:06:36;9.10;99.90
53073;DHT22;38955;48.916;2.336;2023-12-20T09:08:39;9.10;99.90
53073;DHT22;38955;48.916;2.336;2023-12-20T09:10:41;9.00;99.90
53073;DHT22;38955;48.916;2.336;2023-12-20T09:12:44;9.20;99.90
53073;DHT22;38955;48.916;2.336;2023-12-20T09:14:49;9.30;99.90
53073;DHT22;38955;48.916;2.336;2023-12-20T09:16:51;9.30;99.90
53073;DHT22;38955;48.916;2.336;2023-12-20T09:18:54;9.30;99.90
53073;DHT22;38955;48.916;2.336;2023-12-20T09:20:56;9.50;99.90
53073;DHT22;38955;48.916;2.336;2023-12-20T09:22:58;9.40;99.90
53073;DHT22;38955;48.916;2.336;2023-12-20T09:25:00;9.40;99.90
53073;DHT22;38955;48.916;2.336;2023-12-20T09:27:04;9.40;99.90
53073;DHT22;38955;48.916;2.336;2023-12-20T09:29:08;9.40;99.90
53073;DHT22;38955;48.916;2.336;2023-12-20T09:31:17;9.40;99.90
53073;DHT22;38955;48.916;2.336;2023-12-20T09:33:19;9.40;99.90
53073;DHT22;38955;48.916;2.336;2023-12-20T09:35:21;9.40;99.90
53073;DHT22;38955;48.916;2.336;2023-12-20T09:37:27;9.50;99.90
53073;DHT22;38955;48.916;2.336;2023-12-20T09:39:29;9.50;99.90
53073;DHT22;38955;48.916;2.336;2023-12-20T09:41:37;9.60;99.90
53073;DHT22;38955;48.916;2.336;2023-12-20T09:43:43;9.60;99.90
53073;DHT22;38955;48.916;2.336;2023-12-20T09:45:47;9.60;99.90
53073;DHT22;38955;48.916;2.336;2023-12-20T09:47:50;9.70;99.90
53073;DHT22;38955;48.916;2.336;2023-12-20T09:49:52;9.60;99.90
53073;DHT22;38955;48.916;2.336;2023-12-20T09:51:55;9.50;99.90
53073;DHT22;38955;48.916;2.336;2023-12-20T09:53:59;9.50;99.90
53073;DHT22;38955;48.916;2.336;2023-12-20T09:56:03;9.70;99.90
53073;DHT22;38955;48.916;2.336;2023-12-20T09:58:05;9.80;99.90
53073;DHT22;38955;48.916;2.336;2023-12-20T10:00:10;9.70;99.90
53073;DHT22;38955;48.916;2.336;2023-12-20T10:02:13;9.70;99.90
53073;DHT22;38955;48.916;2.336;2023-12-20T10:04:17;9.90;99.90
53073;DHT22;38955;48.916;2.336;2023-12-20T10:06:31;10.00;99.90
53073;DHT22;38955;48.916;2.336;2023-12-20T10:08:33;9.90;99.90
53073;DHT22;38955;48.916;2.336;2023-12-20T10:10:35;10.00;99.90
53073;DHT22;38955;48.916;2.336;2023-12-20T10:13:02;10.00;99.90
53073;DHT22;38955;48.916;2.336;2023-12-20T10:15:05;9.90;99.90
53073;DHT22;38955;48.916;2.336;2023-12-20T10:17:07;9.90;99.90
53073;DHT22;38955;48.916;2.336;2023-12-20T10:19:11;9.90;99.90
53073;DHT22;38955;48.916;2.336;2023-12-20T10:21:13;10.00;99.90
53073;DHT22;38955;48.916;2.336;2023-12-20T10:23:16;10.10;99.90
53073;DHT22;38955;48.916;2.336;2023-12-20T10:25:18;10.00;99.90
53073;DHT22;38955;48.916;2.336;2023-12-20T10:27:20;10.00;99.90
53073;DHT22;38955;48.916;2.336;2023-12-20T10:29:24;10.00;99.90
53073;DHT22;38955;48.916;2.336;2023-12-20T10:31:27;10.00;99.90
53073;DHT22;38955;48.916;2.336;2023-12-20T10:33:30;9.90;99.90
53073;DHT22;38955;48.916;2.336;2023-12-20T10:35:36;10.00;99.90
53073;DHT22;38955;48.916;2.336;2023-12-20T10:37:39;10.00;99.90
53073;DHT22;38955;48.916;2.336;2023-12-20T10:39:42;10.00;99.90
53073;DHT22;38955;48.916;2.336;2023-12-20T10:41:46;9.90;99.90
53073;DHT22;38955;48.916;2.336;2023-12-20T10:43:49;9.80;99.90
53073;DHT22;38955;48.916;2.336;2023-12-20T10:45:51;9.90;99.90
53073;DHT22;38955;48.916;2.336;2023-12-20T10:47:54;10.00;99.90
53073;DHT22;38955;48.916;2.336;2023-12-20T10:49:57;10.10;99.90
53073;DHT22;38955;48.916;2.336;2023-12-20T10:52:02;10.10;99.90
53073;DHT22;38955;48.916;2.336;2023-12-20T10:54:05;10.00;99.90
53073;DHT22;38955;48.916;2.336;2023-12-20T10:56:08;10.00;99.90
53073;DHT22;38955;48.916;2.336;2023-12-20T10:58:15;10.00;99.90
53073;DHT22;38955;48.916;2.336;2023-12-20T11:00:18;10.10;99.90
53073;DHT22;38955;48.916;2.336;2023-12-20T11:02:21;10.10;99.90
53073;DHT22;38955;48.916;2.336;2023-12-20T11:04:28;10.10;99.90
53073;DHT22;38955;48.916;2.336;2023-12-20T11:06:36;10.10;99.90
53073;DHT22;38955;48.916;2.336;2023-12-20T11:08:47;10.00;99.90
53073;DHT22;38955;48.916;2.336;2023-12-20T11:10:56;10.20;99.90
53073;DHT22;38955;48.916;2.336;2023-12-20T11:13:08;10.20;99.90
53073;DHT22;38955;48.916;2.336;2023-12-20T11:15:14;10.20;99.90
53073;DHT22;38955;48.916;2.336;2023-12-20T11:17:17;10.20;99.90
53073;DHT22;38955;48.916;2.336;2023-12-20T11:19:20;10.20;99.90
53073;DHT22;38955;48.916;2.336;2023-12-20T11:21:22;10.30;99.90
53073;DHT22;38955;48.916;2.336;2023-12-20T11:23:26;10.30;99.90
53073;DHT22;38955;48.916;2.336;2023-12-20T11:25:30;10.30;99.90
53073;DHT22;38955;48.916;2.336;2023-12-20T11:27:36;10.40;99.90
53073;DHT22;38955;48.916;2.336;2023-12-20T11:29:40;10.50;99.90
53073;DHT22;38955;48.916;2.336;2023-12-20T11:31:42;10.60;99.90
53073;DHT22;38955;48.916;2.336;2023-12-20T11:33:44;10.60;99.90
53073;DHT22;38955;48.916;2.336;2023-12-20T11:35:50;10.70;99.90
53073;DHT22;38955;48.916;2.336;2023-12-20T11:37:53;10.70;99.90
53073;DHT22;38955;48.916;2.336;2023-12-20T11:39:55;10.80;99.90
53073;DHT22;38955;48.916;2.336;2023-12-20T11:42:04;10.70;99.90
53073;DHT22;38955;48.916;2.336;2023-12-20T11:44:07;11.00;99.90
53073;DHT22;38955;48.916;2.336;2023-12-20T11:46:10;11.00;99.90
53073;DHT22;38955;48.916;2.336;2023-12-20T11:48:14;11.10;99.90
53073;DHT22;38955;48.916;2.336;2023-12-20T11:50:16;11.00;99.90
53073;DHT22;38955;48.916;2.336;2023-12-20T11:52:19;11.20;99.90
53073;DHT22;38955;48.916;2.336;2023-12-20T11:54:21;11.10;99.90
53073;DHT22;38955;48.916;2.336;2023-12-20T11:56:23;11.30;99.90
53073;DHT22;38955;48.916;2.336;2023-12-20T11:58:27;11.20;99.90
53073;DHT22;38955;48.916;2.336;2023-12-20T12:00:29;11.20;99.90
53073;DHT22;38955;48.916;2.336;2023-12-20T12:02:31;11.10;99.90
53073;DHT22;38955;48.916;2.336;2023-12-20T12:04:34;11.20;99.90
53073;DHT22;38955;48.916;2.336;2023-12-20T12:06:36;11.20;99.90
53073;DHT22;38955;48.916;2.336;2023-12-20T12:08:39;11.30;99.90
53073;DHT22;38955;48.916;2.336;2023-12-20T12:10:41;11.20;99.90
53073;DHT22;38955;48.916;2.336;2023-12-20T12:12:43;11.10;99.90
53073;DHT22;38955;48.916;2.336;2023-12-20T12:14:48;11.10;99.90
53073;DHT22;38955;48.916;2.336;2023-12-20T12:16:51;11.10;99.90
53073;DHT22;38955;48.916;2.336;2023-12-20T12:18:56;10.90;99.90
53073;DHT22;38955;48.916;2.336;2023-12-20T12:21:01;11.10;99.90
53073;DHT22;38955;48.916;2.336;2023-12-20T12:23:11;11.50;99.90
53073;DHT22;38955;48.916;2.336;2023-12-20T12:25:13;11.40;99.90
53073;DHT22;38955;48.916;2.336;2023-12-20T12:27:16;11.30;99.90
53073;DHT22;38955;48.916;2.336;2023-12-20T12:29:18;11.10;99.90
53073;DHT22;38955;48.916;2.336;2023-12-20T12:31:22;11.10;99.90
53073;DHT22;38955;48.916;2.336;2023-12-20T12:33:28;11.00;99.90
53073;DHT22;38955;48.916;2.336;2023-12-20T12:35:30;11.00;99.90
53073;DHT22;38955;48.916;2.336;2023-12-20T12:37:34;11.00;99.90
53073;DHT22;38955;48.916;2.336;2023-12-20T12:39:37;11.00;99.90
53073;DHT22;38955;48.916;2.336;2023-12-20T12:41:39;11.00;99.90
53073;DHT22;38955;48.916;2.336;2023-12-20T12:43:42;11.10;99.90
53073;DHT22;38955;48.916;2.336;2023-12-20T12:45:44;10.90;99.90
53073;DHT22;38955;48.916;2.336;2023-12-20T12:47:47;11.00;99.90
53073;DHT22;38955;48.916;2.336;2023-12-20T12:49:51;11.10;99.90
53073;DHT22;38955;48.916;2.336;2023-12-20T12:51:54;11.20;99.90
53073;DHT22;38955;48.916;2.336;2023-12-20T12:54:00;11.10;99.90
53073;DHT22;38955;48.916;2.336;2023-12-20T12:56:02;11.20;99.90
53073;DHT22;38955;48.916;2.336;2023-12-20T12:58:05;11.20;99.90
53073;DHT22;38955;48.916;2.336;2023-12-20T13:00:08;11.10;99.90
53073;DHT22;38955;48.916;2.336;2023-12-20T13:02:11;11.00;99.90
53073;DHT22;38955;48.916;2.336;2023-12-20T13:04:14;11.00;99.90
53073;DHT22;38955;48.916;2.336;2023-12-20T13:06:17;11.00;99.90
53073;DHT22;38955;48.916;2.336;2023-12-20T13:08:19;11.00;99.90